createdAt,value
2018-03-15T00:03:54.051Z,100732.88
2018-03-15T00:06:19.866Z,100736.98
2018-03-15T00:08:46.459Z,100729.73
2018-03-15T00:11:12.229Z,100734.78
2018-03-15T00:13:38.018Z,100731.95
2018-03-15T00:16:03.788Z,100729.45
2018-03-15T00:18:29.577Z,100720.92
2018-03-15T00:20:55.352Z,100716.73
2018-03-15T00:23:21.173Z,100717.58
2018-03-15T00:25:46.951Z,100719.44
2018-03-15T00:28:12.727Z,100708.63
2018-03-15T00:30:38.505Z,100707.30
2018-03-15T00:33:04.311Z,100710.72
2018-03-15T00:35:30.087Z,100710.07
2018-03-15T00:37:55.862Z,100705.67
2018-03-15T00:40:21.642Z,100702.81
2018-03-15T00:42:47.422Z,100703.64
2018-03-15T00:45:13.202Z,100696.95
2018-03-15T00:47:38.994Z,100690.80
2018-03-15T00:50:04.773Z,100688.98
2018-03-15T00:52:30.597Z,100691.42
2018-03-15T00:54:56.405Z,100682.13
2018-03-15T00:57:22.222Z,100678.09
2018-03-15T00:59:48.000Z,100677.91
2018-03-15T01:02:13.778Z,100676.38
2018-03-15T01:04:39.559Z,100678.38
2018-03-15T01:07:05.383Z,100668.61
2018-03-15T01:09:31.171Z,100673.80
2018-03-15T01:11:56.949Z,100671.86
2018-03-15T01:14:22.731Z,100671.02
2018-03-15T01:16:48.506Z,100672.23
2018-03-15T01:19:14.321Z,100664.78
2018-03-15T01:21:40.108Z,100671.78
2018-03-15T01:24:05.886Z,100670.14
2018-03-15T01:26:31.698Z,100666.73
2018-03-15T01:28:57.517Z,100671.95
2018-03-15T01:31:23.296Z,100669.42
2018-03-15T01:33:49.118Z,100659.83
2018-03-15T01:36:14.902Z,100657.58
2018-03-15T01:38:40.678Z,100655.36
2018-03-15T01:41:06.459Z,100660.44
2018-03-15T01:43:32.233Z,100655.71
2018-03-15T01:45:58.010Z,100658.47
2018-03-15T01:48:23.787Z,100661.06
2018-03-15T01:59:02.997Z,100641.67
2018-03-15T02:01:28.932Z,100637.61
2018-03-15T02:03:54.714Z,100633.81
2018-03-15T02:06:20.489Z,100632.08
2018-03-15T02:08:46.270Z,100631.66
2018-03-15T02:11:12.046Z,100632.91
2018-03-15T02:13:37.817Z,100631.85
2018-03-15T02:16:03.617Z,100632.85
2018-03-15T02:18:29.390Z,100628.27
2018-03-15T02:20:55.157Z,100628.05
2018-03-15T02:23:20.930Z,100626.64
2018-03-15T02:25:47.489Z,100623.81
2018-03-15T02:28:13.306Z,100622.06
2018-03-15T02:30:39.091Z,100622.72
2018-03-15T02:33:04.872Z,100623.85
2018-03-15T02:35:30.713Z,100622.97
2018-03-15T02:37:56.491Z,100621.46
2018-03-15T02:40:22.269Z,100613.69
2018-03-15T02:42:48.877Z,100619.37
2018-03-15T02:45:14.654Z,100619.02
2018-03-15T02:47:40.469Z,100617.29
2018-03-15T02:50:06.242Z,100620.22
2018-03-15T02:52:32.013Z,100615.09
2018-03-15T02:54:57.782Z,100613.00
2018-03-15T02:57:23.608Z,100608.56
2018-03-15T02:59:49.382Z,100607.08
2018-03-15T03:02:15.405Z,100607.80
2018-03-15T03:04:41.184Z,100608.28
2018-03-15T03:07:06.966Z,100614.05
2018-03-15T03:09:32.746Z,100613.06
2018-03-15T03:11:58.562Z,100618.27
2018-03-15T03:14:24.333Z,100614.38
2018-03-15T03:16:50.126Z,100617.38
2018-03-15T03:19:15.939Z,100615.51
2018-03-15T03:21:42.655Z,100624.44
2018-03-15T03:24:09.432Z,100615.64
2018-03-15T03:26:36.194Z,100611.08
2018-03-15T03:29:02.030Z,100615.70
2018-03-15T03:31:27.809Z,100618.78
2018-03-15T03:33:54.378Z,100620.08
2018-03-15T03:36:20.153Z,100620.25
2018-03-15T03:38:46.870Z,100621.64
2018-03-15T03:41:13.657Z,100621.91
2018-03-15T03:43:40.415Z,100620.98
2018-03-15T03:46:07.165Z,100614.32
2018-03-15T03:48:33.717Z,100615.11
2018-03-15T03:50:59.518Z,100618.94
2018-03-15T03:53:26.377Z,100618.09
2018-03-15T03:55:52.153Z,100620.73
2018-03-15T03:58:18.866Z,100615.73
2018-03-15T04:00:44.638Z,100618.02
2018-03-15T04:03:11.345Z,100614.05
2018-03-15T04:05:37.158Z,100620.02
2018-03-15T04:08:03.817Z,100624.05
2018-03-15T04:10:29.596Z,100616.48
2018-03-15T04:12:56.385Z,100616.48
2018-03-15T04:15:23.170Z,100613.37
2018-03-15T04:17:48.956Z,100610.98
2018-03-15T04:20:15.661Z,100618.20
2018-03-15T04:22:41.449Z,100614.59
2018-03-15T04:25:08.030Z,100609.97
2018-03-15T04:27:33.798Z,100606.19
2018-03-15T04:30:00.486Z,100608.91
2018-03-15T04:32:26.262Z,100608.45
2018-03-15T04:34:53.062Z,100604.20
2018-03-15T04:37:19.858Z,100604.20
2018-03-15T04:39:46.623Z,100598.86
2018-03-15T04:42:12.401Z,100595.39
2018-03-15T04:44:38.994Z,100593.08
2018-03-15T04:47:05.756Z,100599.45
2018-03-15T04:49:32.409Z,100596.59
2018-03-15T04:51:58.217Z,100602.14
2018-03-15T04:54:23.995Z,100596.87
2018-03-15T04:56:50.736Z,100598.04
2018-03-15T04:59:16.521Z,100596.61
2018-03-15T05:01:43.238Z,100594.65
2018-03-15T05:04:09.018Z,100595.35
2018-03-15T05:06:35.748Z,100596.73
2018-03-15T05:09:01.574Z,100600.67
2018-03-15T05:11:28.219Z,100596.71
2018-03-15T05:13:54.058Z,100591.88
2018-03-15T05:16:19.836Z,100592.49
2018-03-15T05:18:46.569Z,100583.91
2018-03-15T05:21:13.338Z,100587.38
2018-03-15T05:23:40.102Z,100588.27
2018-03-15T05:26:05.914Z,100584.39
2018-03-15T05:28:32.723Z,100588.89
2018-03-15T05:30:59.363Z,100588.69
2018-03-15T05:33:26.143Z,100584.25
2018-03-15T05:35:51.928Z,100587.65
2018-03-15T05:38:17.702Z,100587.86
2018-03-15T05:40:43.529Z,100585.50
2018-03-15T05:43:09.315Z,100585.64
2018-03-15T05:45:35.093Z,100585.44
2018-03-15T05:48:00.906Z,100586.11
2018-03-15T05:50:26.720Z,100586.97
2018-03-15T05:52:52.502Z,100592.63
2018-03-15T05:55:19.103Z,100598.66
2018-03-15T05:57:45.881Z,100594.66
2018-03-15T06:00:12.649Z,100597.09
2018-03-15T06:02:38.445Z,100595.70
2018-03-15T06:05:05.125Z,100598.47
2018-03-15T06:07:30.936Z,100598.67
2018-03-15T06:09:56.714Z,100594.41
2018-03-15T06:12:22.586Z,100598.61
2018-03-15T06:14:48.378Z,100604.19
2018-03-15T06:17:14.163Z,100605.02
2018-03-15T06:19:39.957Z,100603.91
2018-03-15T06:22:05.742Z,100606.18
2018-03-15T06:24:31.523Z,100610.66
2018-03-15T06:26:57.306Z,100612.03
2018-03-15T06:29:23.094Z,100610.25
2018-03-15T06:31:48.878Z,100606.73
2018-03-15T06:34:14.662Z,100609.42
2018-03-15T06:36:40.438Z,100609.58
2018-03-15T06:39:06.225Z,100600.03
2018-03-15T06:41:32.009Z,100605.34
2018-03-15T06:43:57.824Z,100607.19
2018-03-15T06:46:24.398Z,100609.28
2018-03-15T06:48:50.178Z,100617.88
2018-03-15T06:51:15.952Z,100619.05
2018-03-15T06:53:41.734Z,100622.33
2018-03-15T06:56:07.546Z,100620.84
2018-03-15T06:58:33.319Z,100617.92
2018-03-15T07:00:59.139Z,100627.16
2018-03-15T07:03:24.958Z,100629.01
2018-03-15T07:05:51.798Z,100628.88
2018-03-15T07:08:17.615Z,100627.94
2018-03-15T07:10:44.194Z,100617.83
2018-03-15T07:13:10.013Z,100628.70
2018-03-15T07:15:35.850Z,100625.62
2018-03-15T07:18:02.413Z,100626.31
2018-03-15T07:20:28.201Z,100626.81
2018-03-15T07:22:54.997Z,100629.78
2018-03-15T07:25:20.814Z,100630.23
2018-03-15T07:27:47.446Z,100637.90
2018-03-15T07:30:14.190Z,100631.42
2018-03-15T07:32:40.005Z,100626.13
2018-03-15T07:35:05.815Z,100631.59
2018-03-15T07:37:31.666Z,100627.94
2018-03-15T07:39:57.446Z,100628.47
2018-03-15T07:42:23.252Z,100639.30
2018-03-15T07:44:49.078Z,100641.44
2018-03-15T07:47:15.862Z,100636.26
2018-03-15T07:49:42.593Z,100628.84
2018-03-15T07:52:08.407Z,100628.00
2018-03-15T07:54:35.069Z,100627.11
2018-03-15T07:57:01.782Z,100626.11
2018-03-15T07:59:27.619Z,100619.19
2018-03-15T08:01:53.399Z,100620.37
2018-03-15T08:04:19.962Z,100611.42
2018-03-15T08:06:46.687Z,100616.34
2018-03-15T08:09:13.434Z,100607.26
2018-03-15T08:11:40.183Z,100615.82
2018-03-15T08:14:06.896Z,100617.38
2018-03-15T08:16:33.703Z,100616.55
2018-03-15T08:19:00.470Z,100617.95
2018-03-15T08:21:27.184Z,100606.36
2018-03-15T08:23:53.002Z,100610.05
2018-03-15T08:26:19.708Z,100611.69
2018-03-15T08:28:45.522Z,100603.86
2018-03-15T08:31:12.293Z,100600.77
2018-03-15T08:33:38.106Z,100601.51
2018-03-15T08:36:04.866Z,100600.19
2018-03-15T08:38:31.680Z,100602.67
2018-03-15T08:40:57.454Z,100601.16
2018-03-15T08:43:23.261Z,100602.25
2018-03-15T08:45:49.889Z,100601.88
2018-03-15T08:48:16.501Z,100589.45
2018-03-15T08:50:42.327Z,100587.98
2018-03-15T08:53:08.102Z,100590.62
2018-03-15T08:55:34.741Z,100588.84
2018-03-15T08:58:00.548Z,100594.64
2018-03-15T09:00:27.386Z,100585.34
2018-03-15T09:02:53.166Z,100593.11
2018-03-15T09:05:19.060Z,100591.11
2018-03-15T09:07:45.590Z,100581.97
2018-03-15T09:10:11.363Z,100582.38
2018-03-15T09:12:37.141Z,100576.34
2018-03-15T09:15:03.878Z,100575.44
2018-03-15T09:17:30.709Z,100574.06
2018-03-15T09:19:57.526Z,100580.52
2018-03-15T09:22:24.292Z,100580.31
2018-03-15T09:24:51.022Z,100571.31
2018-03-15T09:27:16.840Z,100569.63
2018-03-15T09:29:43.602Z,100563.67
2018-03-15T09:32:10.211Z,100566.80
2018-03-15T09:34:37.070Z,100566.86
2018-03-15T09:37:03.734Z,100566.16
2018-03-15T09:39:29.546Z,100566.78
2018-03-15T09:41:56.305Z,100562.22
2018-03-15T09:44:22.242Z,100553.14
2018-03-15T09:46:48.961Z,100553.29
2018-03-15T09:49:14.742Z,100549.86
2018-03-15T09:51:40.534Z,100547.78
2018-03-15T09:54:07.266Z,100553.55
2018-03-15T09:56:33.118Z,100555.09
2018-03-15T09:58:58.908Z,100542.37
2018-03-15T10:01:24.706Z,100532.26
2018-03-15T10:03:50.518Z,100538.86
2018-03-15T10:06:16.308Z,100530.94
2018-03-15T10:08:42.113Z,100528.02
2018-03-15T10:11:07.955Z,100522.08
2018-03-15T10:13:33.753Z,100516.55
2018-03-15T10:15:59.562Z,100517.99
2018-03-15T10:18:25.363Z,100513.96
2018-03-15T10:20:51.174Z,100527.75
2018-03-15T10:23:16.964Z,100518.70
2018-03-15T10:25:42.758Z,100519.59
2018-03-15T10:28:08.567Z,100516.21
2018-03-15T10:30:34.401Z,100510.98
2018-03-15T10:33:06.200Z,100507.25
2018-03-15T10:35:32.092Z,100504.27
2018-03-15T10:37:57.894Z,100504.36
2018-03-15T10:40:23.823Z,100505.84
2018-03-15T10:42:49.615Z,100502.12
2018-03-15T10:45:16.311Z,100495.80
2018-03-15T10:47:42.117Z,100495.05
2018-03-15T10:50:07.925Z,100495.63
2018-03-15T10:52:33.734Z,100501.22
2018-03-15T10:54:59.542Z,100499.70
2018-03-15T10:57:25.348Z,100499.22
2018-03-15T10:59:51.168Z,100500.32
2018-03-15T11:02:17.979Z,100496.36
2018-03-15T11:04:49.809Z,100495.27
2018-03-15T11:07:22.686Z,100494.70
2018-03-15T11:09:49.493Z,100496.62
2018-03-15T11:12:17.466Z,100485.06
2018-03-15T11:14:43.290Z,100488.05
2018-03-15T11:17:09.931Z,100473.72
2018-03-15T11:19:35.767Z,100479.50
2018-03-15T11:22:01.558Z,100474.59
2018-03-15T11:24:28.347Z,100469.77
2018-03-15T11:26:55.182Z,100471.67
2018-03-15T11:29:21.931Z,100471.89
2018-03-15T11:31:47.937Z,100462.61
2018-03-15T11:34:14.755Z,100459.98
2018-03-15T11:36:41.536Z,100462.67
2018-03-15T11:39:08.210Z,100453.87
2018-03-15T11:41:36.099Z,100458.66
2018-03-15T11:44:01.965Z,100454.70
2018-03-15T11:46:28.751Z,100461.20
2018-03-15T11:48:54.586Z,100459.27
2018-03-15T11:51:21.282Z,100462.39
2018-03-15T11:53:47.089Z,100458.02
2018-03-15T11:56:12.960Z,100455.73
2018-03-15T11:58:39.519Z,100444.88
2018-03-15T12:01:06.275Z,100442.34
2018-03-15T12:03:33.050Z,100439.80
2018-03-15T12:05:58.902Z,100437.59
2018-03-15T12:08:25.497Z,100432.28
2018-03-15T12:10:51.283Z,100436.63
2018-03-15T12:13:17.090Z,100436.27
2018-03-15T12:15:42.893Z,100423.30
2018-03-15T12:18:09.678Z,100423.23
2018-03-15T12:20:35.492Z,100413.32
2018-03-15T12:23:02.222Z,100408.94
2018-03-15T12:25:28.042Z,100407.35
2018-03-15T12:27:54.706Z,100411.23
2018-03-15T12:30:20.517Z,100403.69
2018-03-15T12:32:47.107Z,100399.34
2018-03-15T12:35:13.819Z,100395.56
2018-03-15T12:37:40.545Z,100394.86
2018-03-15T12:40:07.330Z,100395.66
2018-03-15T12:42:34.388Z,100400.25
2018-03-15T12:45:00.202Z,100394.88
2018-03-15T12:47:25.977Z,100394.49
2018-03-15T12:49:51.894Z,100396.39
2018-03-15T12:52:18.680Z,100397.78
2018-03-15T12:54:44.464Z,100401.44
2018-03-15T12:57:11.235Z,100393.13
2018-03-15T12:59:37.994Z,100393.67
2018-03-15T13:02:04.733Z,100387.34
2018-03-15T13:04:31.514Z,100387.73
2018-03-15T13:06:58.211Z,100392.75
2018-03-15T13:09:24.934Z,100395.39
2018-03-15T13:11:51.671Z,100394.48
2018-03-15T13:14:17.453Z,100390.30
2018-03-15T13:16:44.174Z,100388.92
2018-03-15T13:19:10.881Z,100383.76
2018-03-15T13:21:37.558Z,100381.02
2018-03-15T13:24:04.132Z,100384.48
2018-03-15T13:26:29.916Z,100382.86
2018-03-15T13:28:56.523Z,100385.65
2018-03-15T13:31:22.301Z,100387.04
2018-03-15T13:33:49.118Z,100378.53
2018-03-15T13:36:15.726Z,100378.47
2018-03-15T13:38:41.577Z,100380.86
2018-03-15T13:41:07.430Z,100379.45
2018-03-15T13:43:34.230Z,100381.70
2018-03-15T13:46:00.953Z,100381.02
2018-03-15T13:48:27.786Z,100384.76
2018-03-15T13:50:53.566Z,100381.89
2018-03-15T13:53:20.398Z,100389.48
2018-03-15T13:55:47.140Z,100381.09
2018-03-15T13:58:13.923Z,100370.67
2018-03-15T14:00:39.696Z,100372.21
2018-03-15T14:03:05.531Z,100372.91
2018-03-15T14:05:31.318Z,100364.56
2018-03-15T14:07:57.134Z,100363.81
2018-03-15T14:10:22.915Z,100356.91
2018-03-15T14:12:48.703Z,100348.53
2018-03-15T14:15:14.491Z,100345.73
2018-03-15T14:17:40.278Z,100346.01
2018-03-15T14:20:06.070Z,100341.52
2018-03-15T14:22:32.659Z,100333.59
2018-03-15T14:24:58.440Z,100326.05
2018-03-15T14:27:24.218Z,100322.19
2018-03-15T14:29:49.998Z,100314.64
2018-03-15T14:32:16.554Z,100301.05
2018-03-15T14:34:42.340Z,100302.56
2018-03-15T14:37:08.117Z,100294.00
2018-03-15T14:39:33.898Z,100292.44
2018-03-15T14:41:59.704Z,100286.38
2018-03-15T14:44:25.494Z,100287.50
2018-03-15T14:46:51.274Z,100272.55
2018-03-15T14:49:17.059Z,100275.73
2018-03-15T14:51:49.745Z,100272.55
2018-03-15T14:54:15.526Z,100279.05
2018-03-15T14:56:41.310Z,100274.72
2018-03-15T14:59:07.091Z,100280.01
2018-03-15T15:01:32.867Z,100266.88
2018-03-15T15:03:58.645Z,100273.53
2018-03-15T15:06:24.431Z,100264.05
2018-03-15T15:08:50.207Z,100267.87
2018-03-15T15:11:15.983Z,100275.91
2018-03-15T15:13:41.803Z,100276.03
2018-03-15T15:16:07.581Z,100284.22
2018-03-15T15:18:33.409Z,100275.66
2018-03-15T15:20:59.210Z,100286.80
2018-03-15T15:23:24.990Z,100278.38
2018-03-15T15:25:50.774Z,100281.97
2018-03-15T15:28:16.549Z,100276.11
2018-03-15T15:30:42.330Z,100278.53
2018-03-15T15:33:09.041Z,100278.19
2018-03-15T15:35:35.843Z,100282.20
2018-03-15T15:38:02.619Z,100281.06
2018-03-15T15:40:28.408Z,100270.11
2018-03-15T15:42:55.034Z,100276.63
2018-03-15T15:45:21.766Z,100271.83
2018-03-15T15:47:48.577Z,100278.29
2018-03-15T15:50:15.382Z,100272.02
2018-03-15T15:52:41.207Z,100268.66
2018-03-15T15:55:08.005Z,100269.09
2018-03-15T15:57:33.818Z,100266.67
2018-03-15T16:00:00.443Z,100271.55
2018-03-15T16:02:26.221Z,100267.31
2018-03-15T16:04:52.972Z,100275.08
2018-03-15T16:07:18.749Z,100273.81
2018-03-15T16:09:45.485Z,100284.35
2018-03-15T16:12:11.303Z,100274.75
2018-03-15T16:14:37.126Z,100276.06
2018-03-15T16:17:02.905Z,100270.70
2018-03-15T16:19:29.581Z,100273.16
2018-03-15T16:21:55.352Z,100271.84
2018-03-15T16:24:22.104Z,100275.27
2018-03-15T16:26:47.882Z,100282.70
2018-03-15T16:29:13.691Z,100268.33
2018-03-15T16:31:40.361Z,100271.99
2018-03-15T16:34:06.954Z,100271.37
2018-03-15T16:36:33.694Z,100284.91
2018-03-15T16:39:00.442Z,100286.64
2018-03-15T16:41:26.261Z,100288.30
2018-03-15T16:43:52.869Z,100289.59
2018-03-15T16:46:18.642Z,100292.94
2018-03-15T16:48:45.446Z,100294.67
2018-03-15T16:51:12.189Z,100292.81
2018-03-15T16:53:38.014Z,100294.90
2018-03-15T16:56:04.680Z,100298.00
2018-03-15T16:58:31.498Z,100308.61
2018-03-15T17:00:58.126Z,100308.61
2018-03-15T17:03:23.950Z,100313.14
2018-03-15T17:05:50.782Z,100308.78
2018-03-15T17:08:16.567Z,100327.64
2018-03-15T17:10:43.196Z,100330.84
2018-03-15T17:13:08.999Z,100329.18
2018-03-15T17:15:35.615Z,100330.22
2018-03-15T17:18:02.338Z,100339.02
2018-03-15T17:20:28.157Z,100337.98
2018-03-15T17:22:54.790Z,100334.39
2018-03-15T17:25:20.577Z,100328.58
2018-03-15T17:27:46.426Z,100334.56
2018-03-15T17:30:13.164Z,100336.38
2018-03-15T17:32:40.051Z,100346.08
2018-03-15T17:35:05.866Z,100346.91
2018-03-15T17:37:31.674Z,100339.48
2018-03-15T17:39:57.490Z,100343.55
2018-03-15T17:42:24.082Z,100339.83
2018-03-15T17:44:49.890Z,100333.36
2018-03-15T17:47:15.699Z,100341.28
2018-03-15T17:49:42.377Z,100352.83
2018-03-15T17:52:08.195Z,100339.79
2018-03-15T17:54:34.869Z,100340.45
2018-03-15T17:57:01.677Z,100332.73
2018-03-15T17:59:28.501Z,100339.42
2018-03-15T18:01:55.256Z,100341.38
2018-03-15T18:04:21.070Z,100336.89
2018-03-15T18:06:46.875Z,100349.66
2018-03-15T18:09:12.683Z,100340.44
2018-03-15T18:11:39.498Z,100340.44
2018-03-15T18:14:05.307Z,100329.44
2018-03-15T18:16:31.119Z,100341.86
2018-03-15T18:18:56.927Z,100337.80
2018-03-15T18:21:22.738Z,100333.97
2018-03-15T18:23:48.555Z,100341.80
2018-03-15T18:26:14.365Z,100337.09
2018-03-15T18:28:40.170Z,100339.31
2018-03-15T18:31:05.990Z,100339.06
2018-03-15T18:33:31.804Z,100341.05
2018-03-15T18:35:57.654Z,100341.09
2018-03-15T18:38:24.372Z,100332.16
2018-03-15T18:40:51.166Z,100335.59
2018-03-15T18:43:17.969Z,100337.86
2018-03-15T18:45:44.695Z,100333.62
2018-03-15T18:48:10.511Z,100334.58
2018-03-15T18:50:36.334Z,100335.59
2018-03-15T18:53:02.159Z,100328.72
2018-03-15T18:55:27.979Z,100330.67
2018-03-15T18:57:53.808Z,100324.05
2018-03-15T19:00:19.653Z,100322.73
2018-03-15T19:02:45.488Z,100323.56
2018-03-15T19:05:11.326Z,100319.14
2018-03-15T19:07:37.140Z,100320.69
2018-03-15T19:10:02.965Z,100324.81
2018-03-15T19:12:28.774Z,100323.31
2018-03-15T19:14:54.582Z,100326.66
2018-03-15T19:17:20.395Z,100330.45
2018-03-15T19:19:46.208Z,100330.61
2018-03-15T19:22:12.023Z,100331.45
2018-03-15T19:24:37.837Z,100332.84
2018-03-15T19:27:03.651Z,100334.56
2018-03-15T19:29:29.466Z,100336.47
2018-03-15T19:31:55.269Z,100331.89
2018-03-15T19:34:21.081Z,100343.14
2018-03-15T19:36:46.905Z,100339.67
2018-03-15T19:39:13.615Z,100341.57
2018-03-15T19:41:39.423Z,100346.97
2018-03-15T19:44:05.229Z,100342.84
2018-03-15T19:46:31.033Z,100334.94
2018-03-15T19:48:56.890Z,100341.03
2018-03-15T19:51:22.698Z,100349.70
2018-03-15T19:53:49.384Z,100338.66
2018-03-15T19:56:16.242Z,100343.00
2018-03-15T19:58:42.958Z,100334.74
2018-03-15T20:01:08.806Z,100337.12
2018-03-15T20:03:34.628Z,100335.36
2018-03-15T20:06:00.447Z,100330.79
2018-03-15T20:08:27.122Z,100326.20
2018-03-15T20:10:52.966Z,100331.09
2018-03-15T20:13:19.717Z,100322.13
2018-03-15T20:15:48.476Z,100318.48
2018-03-15T20:18:15.217Z,100315.20
2018-03-15T20:20:41.073Z,100312.20
2018-03-15T20:23:13.102Z,100312.84
2018-03-15T20:25:39.735Z,100313.16
2018-03-15T20:28:12.614Z,100309.73
2018-03-15T20:30:38.434Z,100309.34
2018-03-15T20:33:13.013Z,100302.74
2018-03-15T20:35:40.641Z,100298.60
2018-03-15T20:38:07.930Z,100300.40
2018-03-15T20:40:39.804Z,100298.06
2018-03-15T20:43:06.554Z,100296.33
2018-03-15T20:45:39.322Z,100300.42
2018-03-15T20:48:11.402Z,100305.06
2018-03-15T20:50:37.215Z,100308.48
2018-03-15T20:53:03.027Z,100304.39
2018-03-15T20:55:28.878Z,100299.98
2018-03-15T20:57:54.707Z,100300.94
2018-03-15T21:00:21.707Z,100297.66
2018-03-15T21:02:47.522Z,100290.31
2018-03-15T21:05:14.974Z,100291.87
2018-03-15T21:07:40.790Z,100293.12
2018-03-15T21:10:06.594Z,100288.12
2018-03-15T21:12:32.402Z,100291.23
2018-03-15T21:14:58.215Z,100294.95
2018-03-15T21:17:24.059Z,100279.37
2018-03-15T21:19:49.870Z,100282.99
2018-03-15T21:22:15.674Z,100288.73
2018-03-15T21:24:41.514Z,100287.27
2018-03-15T21:27:07.411Z,100286.45
2018-03-15T21:29:33.275Z,100287.19
2018-03-15T21:31:59.086Z,100286.03
2018-03-15T21:34:25.970Z,100290.00
2018-03-15T21:36:51.796Z,100284.42
2018-03-15T21:39:17.602Z,100285.61
2018-03-15T21:41:44.207Z,100293.17
2018-03-15T21:44:10.014Z,100296.67
2018-03-15T21:46:35.839Z,100289.85
2018-03-15T21:49:02.606Z,100293.83
2018-03-15T21:51:29.330Z,100292.97
2018-03-15T21:53:55.135Z,100297.10
2018-03-15T21:56:20.956Z,100286.53
2018-03-15T21:58:46.766Z,100295.08
2018-03-15T22:01:12.571Z,100296.86
2018-03-15T22:03:38.405Z,100293.53
2018-03-15T22:06:04.213Z,100302.86
2018-03-15T22:08:30.019Z,100296.33
2018-03-15T22:10:56.619Z,100292.03
2018-03-15T22:13:22.430Z,100284.95
2018-03-15T22:15:48.237Z,100290.76
2018-03-15T22:18:14.038Z,100289.70
2018-03-15T22:20:39.844Z,100295.14
2018-03-15T22:23:06.693Z,100287.53
2018-03-15T22:25:32.534Z,100285.63
2018-03-15T22:27:58.343Z,100288.86
2018-03-15T22:30:24.150Z,100277.84
2018-03-15T22:32:49.958Z,100276.77
2018-03-15T22:35:15.761Z,100280.12
2018-03-15T22:37:41.606Z,100276.95
2018-03-15T22:40:07.410Z,100274.08
2018-03-15T22:42:33.209Z,100271.44
2018-03-15T22:44:59.162Z,100270.29
2018-03-15T22:47:25.050Z,100263.55
2018-03-15T22:49:51.686Z,100263.98
2018-03-15T22:52:17.555Z,100261.14
2018-03-15T22:54:43.402Z,100257.48
2018-03-15T22:57:09.215Z,100250.92
2018-03-15T22:59:35.026Z,100250.14
2018-03-15T23:02:00.834Z,100246.42
2018-03-15T23:04:27.593Z,100234.47
2018-03-15T23:06:53.401Z,100229.47
2018-03-15T23:09:19.206Z,100231.79
2018-03-15T23:11:45.045Z,100231.02
2018-03-15T23:14:10.859Z,100235.69
2018-03-15T23:16:36.664Z,100235.86
2018-03-15T23:19:02.470Z,100242.44
2018-03-15T23:21:28.280Z,100235.56
2018-03-15T23:23:54.083Z,100234.00
2018-03-15T23:26:19.890Z,100235.44
2018-03-15T23:28:45.734Z,100238.85
2018-03-15T23:31:12.398Z,100238.34
2018-03-15T23:33:39.030Z,100251.17
2018-03-15T23:36:05.122Z,100245.11
2018-03-15T23:38:31.791Z,100249.92
2018-03-15T23:40:58.602Z,100254.27
2018-03-15T23:43:24.418Z,100257.52
2018-03-15T23:45:50.272Z,100251.33
2018-03-15T23:48:16.978Z,100242.56
2018-03-15T23:50:43.733Z,100243.20
2018-03-15T23:53:10.408Z,100241.70
2018-03-15T23:55:37.056Z,100242.54
2018-03-15T23:58:02.913Z,100243.86
